Time;durP1;ratioP1;P1;durP2;ratioP2;P2;SDS_P1;SDS_P2;PMS_P1;PMS_P2;Temp;Humidity;BMP_temperature;BMP_pressure;BME280_temperature;BME280_humidity;BME280_pressure;Samples;Min_cycle;Max_cycle;Signal;HPM_P1;HPM_P2
2022/04/21 00:00:55;;;;;;;4.03;2.90;;;18.60;62.00;;;;;;4933091;29;20450;-75
2022/04/21 00:03:24;;;;;;;2.87;2.63;;;18.60;62.00;;;;;;4932575;29;20456;-77
2022/04/21 00:05:50;;;;;;;2.80;2.60;;;18.60;62.10;;;;;;4932976;29;20430;-75
2022/04/21 00:08:20;;;;;;;6.10;2.97;;;18.50;62.00;;;;;;4918250;29;20575;-76
2022/04/21 00:10:48;;;;;;;3.10;2.70;;;18.50;62.10;;;;;;4909441;29;20451;-75
2022/04/21 00:13:16;;;;;;;3.30;2.70;;;18.50;62.20;;;;;;4922913;29;20475;-75
2022/04/21 00:15:47;;;;;;;3.27;2.77;;;18.50;62.20;;;;;;4936274;29;20423;-75
2022/04/21 00:18:15;;;;;;;3.70;3.00;;;18.50;62.30;;;;;;4935620;29;21605;-75
2022/04/21 00:20:43;;;;;;;3.83;2.60;;;18.40;62.20;;;;;;4935495;29;20448;-76
2022/04/21 00:23:27;;;;;;;3.80;2.70;;;18.40;62.20;;;;;;4935497;29;20799;-76
2022/04/21 00:25:59;;;;;;;3.90;2.80;;;18.40;62.30;;;;;;4936120;29;20444;-75
2022/04/21 00:28:29;;;;;;;2.50;2.30;;;18.40;62.40;;;;;;4919733;29;20467;-75
2022/04/21 00:30:55;;;;;;;3.10;2.80;;;18.40;62.40;;;;;;4925128;29;20521;-75
2022/04/21 00:33:21;;;;;;;5.07;3.07;;;18.40;62.50;;;;;;4939159;28;20470;-75
2022/04/21 00:35:48;;;;;;;5.20;3.23;;;18.30;62.30;;;;;;4918340;29;20480;-75
2022/04/21 00:38:16;;;;;;;3.63;2.97;;;18.30;62.30;;;;;;4919407;29;20460;-75
2022/04/21 00:40:42;;;;;;;3.77;3.40;;;18.30;62.30;;;;;;4937165;29;20432;-76
2022/04/21 00:43:10;;;;;;;2.90;2.60;;;18.30;62.40;;;;;;4920472;29;20493;-75
2022/04/21 00:45:36;;;;;;;3.90;3.10;;;18.30;62.40;;;;;;4919724;29;20555;-75
2022/04/21 00:48:07;;;;;;;4.50;2.47;;;18.30;62.50;;;;;;4935593;29;20927;-76
2022/04/21 00:50:36;;;;;;;2.80;2.60;;;18.20;62.50;;;;;;4936041;29;20520;-75
2022/04/21 00:53:09;;;;;;;2.77;2.43;;;18.20;62.60;;;;;;4919095;29;20855;-75
2022/04/21 00:55:41;;;;;;;3.07;2.77;;;18.20;62.60;;;;;;4936303;29;20895;-75
2022/04/21 00:58:09;;;;;;;3.40;3.03;;;18.20;62.60;;;;;;4934002;29;20815;-77
2022/04/21 01:00:36;;;;;;;4.40;3.43;;;18.20;62.60;;;;;;4942628;29;20439;-75
2022/04/21 01:03:04;;;;;;;4.20;3.40;;;18.20;62.60;;;;;;4936115;29;20424;-75
2022/04/21 01:05:33;;;;;;;2.97;2.63;;;18.20;62.70;;;;;;4935063;29;20811;-75
2022/04/21 01:08:04;;;;;;;4.63;2.93;;;18.20;62.70;;;;;;4936189;29;20459;-76
2022/04/21 01:10:33;;;;;;;3.17;2.87;;;18.10;62.70;;;;;;4918373;29;20957;-75
2022/04/21 01:13:01;;;;;;;2.90;2.70;;;18.10;62.70;;;;;;4934589;29;20479;-76
2022/04/21 01:15:27;;;;;;;5.90;3.00;;;18.10;62.80;;;;;;4940030;29;20440;-76
2022/04/21 01:17:54;;;;;;;4.20;3.10;;;18.10;62.80;;;;;;4934436;29;20441;-75
2022/04/21 01:20:21;;;;;;;3.97;3.53;;;18.10;62.90;;;;;;4933261;29;20566;-75
2022/04/21 01:22:47;;;;;;;3.43;3.10;;;18.10;62.80;;;;;;4922905;29;20442;-75
2022/04/21 01:25:13;;;;;;;3.60;3.23;;;18.00;62.80;;;;;;4935480;29;21031;-76
2022/04/21 01:27:40;;;;;;;3.70;2.93;;;18.00;62.90;;;;;;4902761;29;20465;-75
2022/04/21 01:30:12;;;;;;;3.20;2.90;;;18.00;62.90;;;;;;4934289;29;20976;-76
2022/04/21 01:32:49;;;;;;;4.73;3.53;;;18.00;62.90;;;;;;4934077;29;20475;-77
2022/04/21 01:35:18;;;;;;;4.57;3.70;;;18.00;63.00;;;;;;4928831;29;20511;-75
2022/04/21 01:43:16;;;;;;;3.57;3.27;;;17.90;63.00;;;;;;4935366;29;20439;-75
2022/04/21 01:45:44;;;;;;;4.03;3.23;;;17.90;63.00;;;;;;4918333;29;20438;-75
2022/04/21 01:48:13;;;;;;;4.07;3.37;;;17.90;63.10;;;;;;4918046;29;20812;-75
2022/04/21 01:50:41;;;;;;;3.40;3.10;;;17.80;63.00;;;;;;4934092;29;20198;-75
2022/04/21 01:53:09;;;;;;;3.63;3.00;;;17.80;63.00;;;;;;4921750;29;20578;-75
2022/04/21 01:55:38;;;;;;;3.63;3.17;;;17.80;63.20;;;;;;4934045;29;20448;-75
2022/04/21 01:58:06;;;;;;;3.80;2.87;;;17.80;63.10;;;;;;4933942;29;20442;-75
2022/04/21 02:00:35;;;;;;;3.40;2.77;;;17.80;63.20;;;;;;4918719;29;20442;-76
2022/04/21 02:03:03;;;;;;;3.70;3.10;;;17.70;63.10;;;;;;4933857;29;20533;-76
2022/04/21 02:05:29;;;;;;;4.17;3.20;;;17.80;63.30;;;;;;4935111;29;20522;-76
2022/04/21 02:07:57;;;;;;;3.80;2.93;;;17.80;63.30;;;;;;4934909;29;20447;-75
2022/04/21 02:10:26;;;;;;;5.13;3.20;;;17.70;63.30;;;;;;4935336;29;20487;-75
2022/04/21 02:12:52;;;;;;;3.33;3.03;;;17.70;63.40;;;;;;4932795;29;20505;-79
2022/04/21 02:15:18;;;;;;;3.23;2.93;;;17.70;63.40;;;;;;4938105;29;20442;-77
2022/04/21 02:17:44;;;;;;;3.60;3.00;;;17.70;63.40;;;;;;4934411;29;20527;-75
2022/04/21 02:20:16;;;;;;;3.20;2.90;;;17.70;63.40;;;;;;4933573;29;20490;-75
2022/04/21 02:22:45;;;;;;;4.37;3.20;;;17.60;63.40;;;;;;4934732;29;20432;-75
2022/04/21 02:25:16;;;;;;;3.27;2.97;;;17.60;64.30;;;;;;4921185;29;20544;-75
2022/04/21 02:27:45;;;;;;;3.37;3.07;;;17.60;63.50;;;;;;4933302;29;20470;-75
2022/04/21 02:30:17;;;;;;;3.50;2.83;;;17.60;63.50;;;;;;4933248;29;20434;-76
2022/04/21 02:32:46;;;;;;;4.00;3.60;;;17.60;63.50;;;;;;4933144;29;20479;-75
2022/04/21 02:35:17;;;;;;;2.93;2.70;;;17.50;63.50;;;;;;4922488;29;20514;-76
2022/04/21 02:37:46;;;;;;;4.00;3.60;;;17.50;63.50;;;;;;4930401;29;20453;-76
2022/04/21 02:40:14;;;;;;;6.23;3.20;;;17.50;63.60;;;;;;4917396;29;20441;-75
2022/04/21 02:42:40;;;;;;;3.03;2.73;;;17.50;63.70;;;;;;4934198;29;20426;-76
2022/04/21 02:45:11;;;;;;;5.30;2.93;;;17.50;63.70;;;;;;4937689;29;20453;-76
2022/04/21 02:47:43;;;;;;;4.00;3.10;;;17.50;63.70;;;;;;4917511;29;20806;-75
2022/04/21 02:50:14;;;;;;;3.00;2.70;;;17.40;63.70;;;;;;4933146;29;20440;-75
2022/04/21 02:52:41;;;;;;;3.30;3.00;;;17.40;63.70;;;;;;4916976;29;20474;-76
2022/04/21 02:57:53;;;;;;;3.77;3.40;;;17.40;63.80;;;;;;4932915;29;20455;-75
2022/04/21 03:00:24;;;;;;;3.30;2.93;;;17.40;63.70;;;;;;4933765;29;20482;-76
2022/04/21 03:02:50;;;;;;;3.40;3.03;;;17.30;63.70;;;;;;4933019;29;20434;-75
2022/04/21 03:05:19;;;;;;;3.27;2.97;;;17.30;63.70;;;;;;4933414;29;20949;-76
2022/04/21 03:07:49;;;;;;;3.07;2.77;;;17.30;63.70;;;;;;4928347;29;20489;-75
2022/04/21 03:10:18;;;;;;;2.90;2.70;;;17.30;63.70;;;;;;4913296;29;20447;-76
2022/04/21 03:12:47;;;;;;;5.63;2.83;;;17.30;63.80;;;;;;4935112;29;20553;-75
2022/04/21 03:15:13;;;;;;;5.10;2.70;;;17.30;63.70;;;;;;4934718;29;20486;-76
2022/04/21 03:17:40;;;;;;;3.80;3.23;;;17.20;63.70;;;;;;4931858;29;20471;-76
2022/04/21 03:20:08;;;;;;;3.30;3.00;;;17.20;63.70;;;;;;4932303;29;20433;-77
2022/04/21 03:25:20;;;;;;;4.80;3.60;;;17.20;63.70;;;;;;4915532;29;20437;-75
2022/04/21 03:27:50;;;;;;;3.43;3.13;;;17.20;64.60;;;;;;4916930;29;20982;-75
2022/04/21 03:30:18;;;;;;;4.23;3.17;;;17.20;63.80;;;;;;4933539;29;20835;-75
2022/04/21 03:32:46;;;;;;;3.67;3.30;;;17.10;63.80;;;;;;4933107;29;20543;-76
2022/04/21 03:35:12;;;;;;;4.03;3.60;;;17.20;63.90;;;;;;4935505;29;20530;-75
2022/04/21 03:37:38;;;;;;;4.30;3.43;;;17.10;63.80;;;;;;4932202;29;20453;-76
2022/04/21 03:40:07;;;;;;;4.53;3.13;;;17.10;63.80;;;;;;4933310;29;20213;-76
2022/04/21 03:42:39;;;;;;;4.20;2.67;;;17.10;63.90;;;;;;4934472;29;20429;-76
2022/04/21 03:45:06;;;;;;;4.73;3.23;;;17.10;63.90;;;;;;4940933;29;20432;-75
2022/04/21 03:47:32;;;;;;;5.43;3.07;;;17.10;63.90;;;;;;4940123;28;20484;-76
2022/04/21 03:50:00;;;;;;;3.07;2.77;;;17.00;63.80;;;;;;4921502;29;20434;-76
2022/04/21 03:52:26;;;;;;;3.80;3.47;;;17.00;63.90;;;;;;4904662;29;21017;-75
2022/04/21 03:54:54;;;;;;;3.77;3.37;;;17.00;63.90;;;;;;4936153;29;20420;-75
2022/04/21 03:57:25;;;;;;;3.63;3.20;;;17.00;64.00;;;;;;4935873;29;20466;-76
2022/04/21 03:59:54;;;;;;;3.30;3.00;;;17.00;64.00;;;;;;4938202;29;20446;-75
2022/04/21 04:02:19;;;;;;;3.20;2.90;;;17.00;64.00;;;;;;4935697;28;20524;-75
2022/04/21 04:04:45;;;;;;;3.27;2.50;;;16.90;63.90;;;;;;4921307;29;20557;-75
2022/04/21 04:12:45;;;;;;;3.47;3.03;;;16.90;64.00;;;;;;4935591;29;20459;-75
2022/04/21 04:15:11;;;;;;;3.23;2.80;;;16.90;64.00;;;;;;4920100;29;20985;-76
2022/04/21 04:17:40;;;;;;;3.73;3.30;;;16.90;64.00;;;;;;4935487;29;20813;-76
2022/04/21 04:20:08;;;;;;;4.33;2.87;;;16.80;63.90;;;;;;4941287;29;20428;-76
2022/04/21 04:22:42;;;;;;;3.20;2.90;;;16.80;64.00;;;;;;4935819;29;20529;-75
2022/04/21 04:25:13;;;;;;;3.73;2.87;;;16.80;64.00;;;;;;4936738;29;20470;-75
2022/04/21 04:27:42;;;;;;;3.43;3.00;;;16.80;64.00;;;;;;4933241;29;21027;-75
2022/04/21 04:30:09;;;;;;;3.97;3.57;;;16.80;64.10;;;;;;4934948;29;20429;-74
2022/04/21 04:32:36;;;;;;;4.40;3.17;;;16.80;64.00;;;;;;4928417;29;20468;-75
2022/04/21 04:35:10;;;;;;;3.90;3.07;;;16.70;63.90;;;;;;4935496;29;20428;-75
2022/04/21 04:37:35;;;;;;;3.87;2.60;;;16.70;63.90;;;;;;4939312;29;20453;-75
2022/04/21 04:40:04;;;;;;;6.33;2.93;;;16.70;64.00;;;;;;4938621;28;21000;-75
2022/04/21 04:42:32;;;;;;;7.17;2.90;;;16.70;64.00;;;;;;4920366;29;20642;-76
2022/04/21 04:47:45;;;;;;;3.60;3.00;;;16.70;64.10;;;;;;4919900;29;20466;-74
2022/04/21 04:50:13;;;;;;;3.50;3.20;;;16.70;64.10;;;;;;4934466;29;20431;-75
2022/04/21 04:52:39;;;;;;;4.27;2.77;;;16.60;64.10;;;;;;4938308;29;21209;-74
2022/04/21 04:55:10;;;;;;;3.97;2.40;;;16.60;64.00;;;;;;4934838;29;20288;-74
2022/04/21 04:57:36;;;;;;;3.33;2.50;;;16.60;64.00;;;;;;4940572;28;20972;-74
2022/04/21 05:00:08;;;;;;;5.00;3.17;;;16.60;64.00;;;;;;4919181;29;20436;-74
2022/04/21 05:02:37;;;;;;;2.93;2.70;;;16.60;64.10;;;;;;4918214;29;20431;-74
2022/04/21 05:05:03;;;;;;;4.17;3.03;;;16.60;64.10;;;;;;4935138;29;20532;-74
2022/04/21 05:07:29;;;;;;;5.30;3.20;;;16.50;64.00;;;;;;4934869;29;20894;-74
2022/04/21 05:09:58;;;;;;;3.17;2.87;;;16.50;64.00;;;;;;4941030;29;20446;-74
2022/04/21 05:12:26;;;;;;;3.50;2.63;;;16.50;64.00;;;;;;4920248;29;20556;-75
2022/04/21 05:14:52;;;;;;;3.17;2.87;;;16.50;64.00;;;;;;4935130;29;20434;-74
2022/04/21 05:17:21;;;;;;;4.17;3.00;;;16.50;64.10;;;;;;4935652;29;20516;-74
2022/04/21 05:19:52;;;;;;;4.50;3.10;;;16.50;64.10;;;;;;4919140;29;21025;-74
2022/04/21 05:22:27;;;;;;;3.50;3.20;;;16.50;64.10;;;;;;4919031;29;20434;-74
2022/04/21 05:24:53;;;;;;;3.70;3.30;;;16.40;64.00;;;;;;4934650;29;20476;-75
2022/04/21 05:27:21;;;;;;;3.90;3.00;;;16.40;64.00;;;;;;4918586;29;21731;-74
2022/04/21 05:32:37;;;;;;;3.00;2.70;;;16.40;64.20;;;;;;4937264;29;21027;-75
2022/04/21 05:35:04;;;;;;;3.47;2.30;;;16.40;64.20;;;;;;4918581;29;20831;-74
2022/04/21 05:37:31;;;;;;;3.63;3.23;;;16.40;64.20;;;;;;4940471;29;20798;-74
2022/04/21 05:40:02;;;;;;;5.33;4.50;;;16.30;64.20;;;;;;4936632;29;20428;-74
2022/04/21 05:42:30;;;;;;;4.50;2.70;;;16.30;64.20;;;;;;4933781;29;20455;-74
2022/04/21 05:44:57;;;;;;;4.80;3.20;;;16.30;64.20;;;;;;4937416;29;20457;-74
2022/04/21 05:47:28;;;;;;;2.97;2.67;;;16.30;64.30;;;;;;4901712;29;20473;-74
2022/04/21 05:50:00;;;;;;;4.80;3.00;;;16.30;64.30;;;;;;4934341;29;20452;-76
2022/04/21 05:52:31;;;;;;;3.97;3.17;;;16.30;64.30;;;;;;4936418;29;20978;-75
2022/04/21 05:55:00;;;;;;;4.03;2.90;;;16.30;64.30;;;;;;4932544;29;20468;-76
2022/04/21 05:57:27;;;;;;;3.27;2.97;;;16.20;64.20;;;;;;4935198;29;21021;-75
2022/04/21 05:59:55;;;;;;;3.67;2.93;;;16.20;64.20;;;;;;4935130;29;20977;-75
2022/04/21 06:02:23;;;;;;;4.97;3.00;;;16.20;64.20;;;;;;4933499;29;20451;-75
2022/04/21 06:04:48;;;;;;;6.17;3.37;;;16.20;64.20;;;;;;4940420;28;20546;-75
2022/04/21 06:07:15;;;;;;;6.17;3.93;;;16.20;64.30;;;;;;4933306;28;20509;-76
2022/04/21 06:09:43;;;;;;;3.10;2.90;;;16.20;64.40;;;;;;4933522;29;20222;-75
2022/04/21 06:12:13;;;;;;;7.87;3.50;;;16.20;64.40;;;;;;4917006;29;20472;-75
2022/04/21 06:14:44;;;;;;;5.60;3.00;;;16.20;64.40;;;;;;4932771;29;20432;-76
2022/04/21 06:17:15;;;;;;;3.23;2.93;;;16.20;64.40;;;;;;4934117;29;20491;-75
2022/04/21 06:19:43;;;;;;;6.17;3.20;;;16.20;64.40;;;;;;4932748;29;20427;-75
2022/04/21 06:22:09;;;;;;;5.53;3.30;;;16.10;64.40;;;;;;4932898;29;20451;-75
2022/04/21 06:24:38;;;;;;;4.07;3.13;;;16.20;64.40;;;;;;4934307;29;20971;-74
2022/04/21 06:27:04;;;;;;;3.33;2.80;;;16.10;64.40;;;;;;4933691;29;20990;-75
2022/04/21 06:29:30;;;;;;;3.00;2.70;;;16.10;64.40;;;;;;4934354;29;20452;-76
2022/04/21 06:31:59;;;;;;;3.00;2.70;;;16.10;64.40;;;;;;4932768;29;20436;-73
2022/04/21 06:34:27;;;;;;;3.40;2.80;;;16.10;64.40;;;;;;4917293;29;20781;-74
2022/04/21 06:36:53;;;;;;;6.33;3.53;;;16.10;64.40;;;;;;4939233;28;20513;-74
2022/04/21 06:39:19;;;;;;;3.70;2.70;;;16.10;64.50;;;;;;4935974;29;20519;-74
2022/04/21 06:41:44;;;;;;;3.50;3.17;;;16.10;64.40;;;;;;4933819;29;20932;-76
2022/04/21 06:49:57;;;;;;;4.50;3.13;;;16.10;64.60;;;;;;4954144;29;20441;-72
2022/04/21 06:52:27;;;;;;;3.00;2.70;;;16.00;64.60;;;;;;4939623;29;20488;-72
2022/04/21 06:54:53;;;;;;;4.30;2.90;;;16.00;64.60;;;;;;4934681;29;20470;-73
2022/04/21 06:57:23;;;;;;;3.17;2.67;;;16.10;64.80;;;;;;4934666;29;20477;-72
2022/04/21 06:59:49;;;;;;;4.10;3.13;;;16.10;64.90;;;;;;4918687;29;20212;-71
2022/04/21 07:02:16;;;;;;;4.60;2.77;;;16.10;65.00;;;;;;4934705;29;20438;-72
2022/04/21 07:04:42;;;;;;;7.27;2.77;;;16.10;65.00;;;;;;4934485;29;20501;-72
2022/04/21 07:07:10;;;;;;;4.57;2.93;;;16.00;64.90;;;;;;4918843;29;20456;-73
2022/04/21 07:09:43;;;;;;;3.33;2.80;;;16.00;64.90;;;;;;4935741;29;20431;-72
2022/04/21 07:12:16;;;;;;;3.73;2.57;;;16.00;64.90;;;;;;4934328;29;20455;-72
2022/04/21 07:14:42;;;;;;;4.93;3.30;;;16.00;65.00;;;;;;4934632;29;20420;-73
2022/04/21 07:17:08;;;;;;;3.90;2.50;;;16.00;65.00;;;;;;4935616;29;20436;-72
2022/04/21 07:19:36;;;;;;;3.87;2.70;;;16.10;65.10;;;;;;4939020;29;20922;-73
2022/04/21 07:22:02;;;;;;;2.83;2.53;;;16.00;65.10;;;;;;4953602;29;20167;-73
2022/04/21 07:24:28;;;;;;;3.10;2.47;;;16.00;65.10;;;;;;4942301;28;20554;-73
2022/04/21 07:26:54;;;;;;;2.60;2.40;;;16.10;65.10;;;;;;4934666;29;20540;-72
2022/04/21 07:29:20;;;;;;;3.60;2.97;;;16.00;65.10;;;;;;4935312;29;20229;-72
2022/04/21 07:31:53;;;;;;;3.27;2.90;;;16.10;65.30;;;;;;4934304;29;20425;-73
2022/04/21 07:34:25;;;;;;;4.37;2.67;;;16.10;65.20;;;;;;4918862;29;20505;-72
2022/04/21 07:36:51;;;;;;;3.37;2.77;;;16.00;65.20;;;;;;4918037;29;20470;-73
2022/04/21 07:39:19;;;;;;;3.37;2.80;;;16.10;65.30;;;;;;4933390;29;20423;-73
2022/04/21 07:41:47;;;;;;;5.17;2.87;;;16.10;65.30;;;;;;4918415;29;20488;-73
2022/04/21 07:44:15;;;;;;;4.13;3.00;;;16.10;65.40;;;;;;4918621;29;20942;-73
2022/04/21 07:46:42;;;;;;;4.97;3.10;;;16.10;65.30;;;;;;4935249;29;20452;-73
2022/04/21 07:53:12;;;;;;;3.67;2.80;;;16.10;66.10;;;;;;4933992;29;20430;-73
2022/04/21 07:54:43;;;;;;;3.70;2.83;;;16.10;65.30;;;;;;4934084;29;20489;-73
2022/04/21 07:57:10;;;;;;;3.33;2.50;;;16.10;65.40;;;;;;4934246;29;20509;-73
2022/04/21 07:59:36;;;;;;;3.87;2.77;;;16.10;65.50;;;;;;4902480;29;20911;-73
2022/04/21 08:02:04;;;;;;;3.73;2.90;;;16.10;65.40;;;;;;4917703;29;20448;-73
2022/04/21 08:04:34;;;;;;;3.20;2.57;;;16.10;65.40;;;;;;4918563;29;20560;-73
2022/04/21 08:07:03;;;;;;;2.50;2.20;;;16.10;65.40;;;;;;4918577;29;20451;-73
2022/04/21 08:09:33;;;;;;;3.13;2.83;;;16.10;65.50;;;;;;4935176;29;20895;-73
2022/04/21 08:11:59;;;;;;;2.63;2.43;;;16.10;65.40;;;;;;4934994;29;20412;-73
2022/04/21 08:14:26;;;;;;;6.33;2.80;;;16.10;65.40;;;;;;4918182;29;20594;-73
2022/04/21 08:16:54;;;;;;;3.20;2.90;;;16.10;65.40;;;;;;4918222;29;20451;-73
2022/04/21 08:19:25;;;;;;;2.97;2.67;;;16.10;65.40;;;;;;4934024;29;20441;-73
2022/04/21 08:21:51;;;;;;;2.57;2.30;;;16.10;65.30;;;;;;4933753;29;20437;-73
2022/04/21 08:32:33;;;;;;;2.93;2.30;;;16.10;65.00;;;;;;4938326;29;20861;-73
2022/04/21 08:35:04;;;;;;;3.63;2.73;;;16.20;65.00;;;;;;4938507;29;20502;-73
2022/04/21 08:37:35;;;;;;;2.30;2.10;;;16.20;65.00;;;;;;4937285;29;20479;-73
2022/04/21 08:40:06;;;;;;;2.67;2.27;;;16.20;64.90;;;;;;4921594;29;20427;-73
2022/04/21 08:42:44;;;;;;;2.50;2.17;;;16.20;64.70;;;;;;4936898;29;20468;-73
2022/04/21 08:45:12;;;;;;;3.10;2.50;;;16.20;64.60;;;;;;4921008;29;20438;-73
2022/04/21 08:47:46;;;;;;;2.63;2.20;;;16.20;64.60;;;;;;4937444;29;20496;-73
2022/04/21 08:50:16;;;;;;;3.97;2.40;;;16.20;64.30;;;;;;4920974;29;20426;-73
2022/04/21 08:52:45;;;;;;;4.13;2.47;;;16.30;64.30;;;;;;4938065;29;20509;-73
2022/04/21 08:55:11;;;;;;;3.30;2.40;;;16.30;64.10;;;;;;4937743;29;20783;-73
2022/04/21 08:57:37;;;;;;;2.40;1.87;;;16.30;64.00;;;;;;4937939;29;20478;-73
2022/04/21 09:00:07;;;;;;;2.53;2.33;;;16.30;63.80;;;;;;4937635;29;20423;-73
2022/04/21 09:02:42;;;;;;;3.13;2.30;;;16.40;63.60;;;;;;4921038;29;20504;-73
2022/04/21 09:05:11;;;;;;;4.83;2.27;;;16.40;63.30;;;;;;4937571;29;20399;-73
2022/04/21 09:07:44;;;;;;;4.47;2.07;;;16.40;63.10;;;;;;4936107;29;20969;-73
2022/04/21 09:10:17;;;;;;;2.40;2.20;;;16.40;63.70;;;;;;4920683;29;20569;-72
2022/04/21 09:12:55;;;;;;;2.73;2.03;;;16.50;62.90;;;;;;4936613;29;20572;-73
2022/04/21 09:15:28;;;;;;;2.90;1.80;;;16.50;62.70;;;;;;4936553;29;20419;-73
2022/04/21 09:17:59;;;;;;;4.23;2.50;;;16.50;62.50;;;;;;4937477;29;20441;-72
2022/04/21 09:20:39;;;;;;;3.03;2.77;;;16.50;62.20;;;;;;4920732;29;20462;-73
2022/04/21 09:23:10;;;;;;;4.10;2.00;;;16.60;62.20;;;;;;4936396;29;20437;-73
2022/04/21 09:25:54;;;;;;;2.63;1.80;;;16.60;62.20;;;;;;4920594;29;20433;-73
2022/04/21 09:28:25;;;;;;;1.73;1.60;;;16.60;62.00;;;;;;4920224;29;20955;-73
2022/04/21 09:30:56;;;;;;;4.53;1.83;;;16.70;62.10;;;;;;4936342;29;20415;-73
2022/04/21 09:33:41;;;;;;;3.27;2.00;;;16.70;62.00;;;;;;4935906;29;20500;-73
2022/04/21 09:36:08;;;;;;;2.30;2.10;;;16.70;61.80;;;;;;4920583;29;20438;-73
2022/04/21 09:38:37;;;;;;;3.53;2.20;;;16.80;61.70;;;;;;4904960;29;20476;-73
2022/04/21 09:41:12;;;;;;;2.63;1.73;;;16.80;61.60;;;;;;4934748;29;20836;-73
2022/04/21 09:43:41;;;;;;;1.53;1.43;;;16.80;61.50;;;;;;4920494;29;20855;-73
2022/04/21 09:46:24;;;;;;;2.27;2.07;;;16.80;61.40;;;;;;4920289;29;20495;-73
2022/04/21 09:48:58;;;;;;;2.13;2.00;;;16.90;61.50;;;;;;4935854;29;20503;-73
2022/04/21 09:51:28;;;;;;;3.60;1.80;;;16.90;61.50;;;;;;4937007;29;20409;-73
2022/04/21 09:53:58;;;;;;;2.70;2.20;;;16.90;61.40;;;;;;4935830;29;20532;-73
2022/04/21 09:56:36;;;;;;;2.33;1.87;;;17.00;61.30;;;;;;4937175;29;20427;-73
2022/04/21 09:59:09;;;;;;;2.13;1.90;;;17.00;61.40;;;;;;4936915;29;20403;-73
2022/04/21 10:01:38;;;;;;;2.63;2.00;;;17.00;61.40;;;;;;4935922;29;20418;-73
2022/04/21 10:04:11;;;;;;;3.87;2.20;;;17.10;61.50;;;;;;4935664;29;20427;-73
2022/04/21 10:06:43;;;;;;;2.47;1.90;;;17.10;61.40;;;;;;4935606;29;20449;-73
2022/04/21 10:09:16;;;;;;;2.10;1.90;;;17.10;61.30;;;;;;4935841;29;20780;-73
2022/04/21 10:11:42;;;;;;;2.70;1.80;;;17.20;61.30;;;;;;4935545;29;20534;-74
2022/04/21 10:14:15;;;;;;;2.80;1.83;;;17.20;61.30;;;;;;4936522;29;20619;-73
2022/04/21 10:16:42;;;;;;;2.07;1.70;;;17.30;61.30;;;;;;4935508;29;20426;-73
2022/04/21 10:19:19;;;;;;;2.33;2.00;;;17.30;61.40;;;;;;4935226;29;20450;-73
2022/04/21 10:21:52;;;;;;;2.10;1.90;;;17.30;61.30;;;;;;4935109;29;20440;-74
2022/04/21 10:24:26;;;;;;;3.00;1.90;;;17.40;61.30;;;;;;4935279;29;20516;-74
2022/04/21 10:26:52;;;;;;;2.93;2.00;;;17.40;61.40;;;;;;4935140;29;20436;-72
2022/04/21 10:29:23;;;;;;;2.10;1.80;;;17.40;61.50;;;;;;4919817;29;20466;-72
2022/04/21 10:31:55;;;;;;;3.43;1.93;;;17.40;61.40;;;;;;4903787;29;20444;-72
2022/04/21 10:34:31;;;;;;;1.90;1.70;;;17.50;61.50;;;;;;4919456;29;20952;-73
2022/04/21 10:37:21;;;;;;;5.20;2.07;;;17.50;61.40;;;;;;4903032;29;20976;-73
2022/04/21 10:40:09;;;;;;;2.30;2.10;;;17.50;61.40;;;;;;4918865;29;20437;-75
2022/04/21 10:42:55;;;;;;;2.27;2.07;;;17.50;61.40;;;;;;4928768;29;20424;-75
2022/04/21 10:45:29;;;;;;;2.53;2.33;;;17.60;61.50;;;;;;4935956;29;20423;-72
2022/04/21 10:48:05;;;;;;;3.20;2.10;;;17.60;61.30;;;;;;4935025;29;20534;-77
2022/04/21 10:50:32;;;;;;;1.83;1.70;;;17.60;61.30;;;;;;4922089;29;20510;-74
2022/04/21 10:58:39;;;;;;;4.60;2.10;;;17.70;61.30;;;;;;4938266;29;20450;-76
2022/04/21 11:01:31;;;;;;;3.87;2.53;;;17.70;61.30;;;;;;4935512;29;20779;-75
2022/04/21 11:04:20;;;;;;;3.10;2.30;;;17.70;61.20;;;;;;4947666;29;20529;-74
2022/04/21 11:06:52;;;;;;;2.10;1.63;;;17.70;61.10;;;;;;4922261;28;20418;-74
2022/04/21 11:09:37;;;;;;;4.20;2.20;;;17.80;61.30;;;;;;4953769;29;20422;-75
2022/04/21 11:12:08;;;;;;;2.73;1.90;;;17.80;61.30;;;;;;4927904;29;20501;-75
2022/04/21 11:14:39;;;;;;;2.90;1.90;;;17.80;61.20;;;;;;4934273;29;20914;-74
2022/04/21 11:17:09;;;;;;;3.20;1.90;;;17.80;61.10;;;;;;4934353;29;20441;-74
2022/04/21 11:19:50;;;;;;;2.60;2.37;;;17.80;60.90;;;;;;4934363;29;20890;-74
2022/04/21 11:22:35;;;;;;;2.80;2.00;;;17.80;60.90;;;;;;4934544;29;20594;-74
2022/04/21 11:25:03;;;;;;;2.93;1.67;;;17.90;61.10;;;;;;4918450;29;20452;-74
2022/04/21 11:27:34;;;;;;;6.00;2.07;;;17.90;61.10;;;;;;4934201;29;20451;-74
2022/04/21 11:30:12;;;;;;;3.20;2.20;;;17.90;61.00;;;;;;4918326;29;20461;-74
2022/04/21 11:32:39;;;;;;;6.93;2.33;;;17.90;60.80;;;;;;4934237;29;20447;-73
2022/04/21 11:35:10;;;;;;;2.10;1.90;;;17.90;60.80;;;;;;4934398;29;20434;-73
2022/04/21 11:37:54;;;;;;;3.03;2.00;;;18.00;60.80;;;;;;4934244;29;20434;-73
2022/04/21 11:40:31;;;;;;;3.43;2.43;;;18.00;60.90;;;;;;4934241;29;20482;-73
2022/04/21 11:42:59;;;;;;;3.90;2.20;;;18.00;60.80;;;;;;4935483;29;20764;-73
2022/04/21 11:45:28;;;;;;;2.87;2.20;;;18.00;60.90;;;;;;4934369;29;20452;-73
2022/04/21 11:47:55;;;;;;;4.93;1.77;;;18.00;61.00;;;;;;4934161;29;20795;-73
2022/04/21 11:50:25;;;;;;;2.50;2.30;;;18.10;61.10;;;;;;4935224;29;20418;-73
2022/04/21 11:52:54;;;;;;;3.30;2.03;;;18.10;61.10;;;;;;4935303;29;20539;-73
2022/04/21 11:55:28;;;;;;;2.83;2.30;;;18.10;61.00;;;;;;4935452;29;20994;-74
2022/04/21 11:57:55;;;;;;;3.33;1.97;;;18.10;60.90;;;;;;4935106;29;20434;-73
2022/04/21 12:08:50;;;;;;;2.60;2.07;;;18.20;61.00;;;;;;4938789;29;20964;-73
2022/04/21 12:11:23;;;;;;;2.80;2.43;;;18.20;61.00;;;;;;4937871;29;20435;-73
2022/04/21 12:13:49;;;;;;;3.53;1.80;;;18.30;61.10;;;;;;4921774;29;21008;-73
2022/04/21 12:16:42;;;;;;;2.10;1.90;;;18.30;61.10;;;;;;4937565;29;20412;-73
2022/04/21 12:19:12;;;;;;;3.73;2.27;;;18.30;61.20;;;;;;4938709;29;20435;-73
2022/04/21 12:21:38;;;;;;;3.10;1.93;;;18.30;61.20;;;;;;4937586;29;20453;-73
2022/04/21 12:24:17;;;;;;;2.80;2.07;;;18.40;61.20;;;;;;4937552;29;20447;-73
2022/04/21 12:26:51;;;;;;;2.40;2.20;;;18.40;61.20;;;;;;4921977;29;20459;-73
2022/04/21 12:29:21;;;;;;;3.50;2.07;;;18.40;61.20;;;;;;4937565;29;20995;-74
2022/04/21 12:31:59;;;;;;;2.40;2.20;;;18.40;61.10;;;;;;4905748;29;20443;-73
2022/04/21 12:34:28;;;;;;;4.10;2.87;;;18.40;61.20;;;;;;4918467;29;20417;-72
2022/04/21 12:36:56;;;;;;;3.50;2.50;;;18.50;61.40;;;;;;4915759;29;20458;-72
2022/04/21 12:39:24;;;;;;;3.67;3.03;;;18.50;61.30;;;;;;4918085;29;20452;-73
2022/04/21 12:41:53;;;;;;;4.80;2.80;;;18.50;61.20;;;;;;4921182;29;20501;-72
2022/04/21 12:44:24;;;;;;;5.80;2.00;;;18.60;61.30;;;;;;4921696;29;20432;-73
2022/04/21 12:47:12;;;;;;;2.90;2.40;;;18.60;61.30;;;;;;4937063;29;20436;-72
2022/04/21 12:49:58;;;;;;;2.70;2.40;;;18.60;61.20;;;;;;4950559;29;20479;-72
2022/04/21 12:52:35;;;;;;;3.30;2.50;;;18.60;61.10;;;;;;4936899;29;20470;-73
2022/04/21 12:55:05;;;;;;;4.50;2.93;;;18.60;61.10;;;;;;4937896;29;20528;-72
2022/04/21 12:57:37;;;;;;;4.53;2.67;;;18.60;61.10;;;;;;4938022;29;20535;-72
2022/04/21 13:00:15;;;;;;;4.93;2.83;;;18.70;61.20;;;;;;4905486;29;20530;-72
2022/04/21 13:02:46;;;;;;;2.93;2.60;;;18.70;61.10;;;;;;4953946;29;20430;-73
2022/04/21 13:05:15;;;;;;;2.80;2.37;;;18.70;61.10;;;;;;4944078;28;20770;-72
2022/04/21 13:07:43;;;;;;;2.60;2.37;;;18.70;61.10;;;;;;4936540;29;20530;-73
2022/04/21 13:10:09;;;;;;;2.30;2.10;;;18.70;61.10;;;;;;4937843;29;20460;-73
2022/04/21 13:12:37;;;;;;;2.80;2.47;;;18.70;61.00;;;;;;4937711;29;20486;-73
2022/04/21 13:15:04;;;;;;;3.20;2.87;;;18.80;61.10;;;;;;4937598;29;20501;-73
2022/04/21 13:17:33;;;;;;;2.60;2.40;;;18.80;61.10;;;;;;4920700;29;20209;-72
2022/04/21 13:20:01;;;;;;;3.57;2.30;;;18.80;61.10;;;;;;4920839;29;20420;-72
2022/04/21 13:22:28;;;;;;;2.80;2.50;;;18.80;61.10;;;;;;4937324;29;20456;-72
2022/04/21 13:24:54;;;;;;;2.90;2.57;;;18.80;61.10;;;;;;4936472;29;20443;-73
2022/04/21 13:27:26;;;;;;;3.27;2.27;;;18.90;61.20;;;;;;4937406;29;20539;-72
2022/04/21 13:29:55;;;;;;;2.63;2.30;;;18.90;61.30;;;;;;4936530;29;20499;-73
2022/04/21 13:35:07;;;;;;;4.57;2.47;;;18.90;61.40;;;;;;4943719;29;20990;-73
2022/04/21 13:37:38;;;;;;;3.70;2.63;;;18.90;61.50;;;;;;4935940;29;20474;-73
2022/04/21 13:40:06;;;;;;;2.53;2.33;;;19.00;61.70;;;;;;4936345;29;20428;-73
2022/04/21 13:42:35;;;;;;;2.70;2.47;;;19.00;61.70;;;;;;4935828;29;20453;-73
2022/04/21 13:45:01;;;;;;;3.30;2.30;;;19.00;61.60;;;;;;4937092;29;20467;-73
2022/04/21 13:47:29;;;;;;;3.93;2.73;;;19.00;61.70;;;;;;4935910;29;20484;-72
2022/04/21 13:49:55;;;;;;;11.50;3.30;;;19.00;61.70;;;;;;4919574;29;20719;-72
2022/04/21 13:52:23;;;;;;;7.53;3.20;;;19.10;61.80;;;;;;4935865;29;20458;-72
2022/04/21 13:54:50;;;;;;;9.80;3.70;;;19.10;62.00;;;;;;4936964;29;20451;-72
2022/04/21 13:57:15;;;;;;;5.10;3.40;;;19.10;62.20;;;;;;4939721;29;20454;-72